sensor_id;sensor_type;location;lat;lon;timestamp;P1;durP1;ratioP1;P2;durP2;ratioP2
24713;SDS011;12820;51.580;5.010;2022-12-18T00:04:38;87.72;;;27.50;;
24713;SDS011;12820;51.580;5.010;2022-12-18T00:09:40;85.10;;;27.30;;
24713;SDS011;12820;51.580;5.010;2022-12-18T00:14:42;81.70;;;27.25;;
24713;SDS011;12820;51.580;5.010;2022-12-18T00:19:44;77.35;;;26.35;;
24713;SDS011;12820;51.580;5.010;2022-12-18T00:24:47;75.45;;;26.15;;
24713;SDS011;12820;51.580;5.010;2022-12-18T00:29:49;72.97;;;26.13;;
24713;SDS011;12820;51.580;5.010;2022-12-18T00:34:51;79.95;;;27.38;;
24713;SDS011;12820;51.580;5.010;2022-12-18T00:39:53;75.60;;;27.35;;
24713;SDS011;12820;51.580;5.010;2022-12-18T00:44:55;77.22;;;27.45;;
24713;SDS011;12820;51.580;5.010;2022-12-18T00:49:57;67.75;;;24.55;;
24713;SDS011;12820;51.580;5.010;2022-12-18T00:54:59;61.40;;;23.98;;
24713;SDS011;12820;51.580;5.010;2022-12-18T01:00:07;69.40;;;25.33;;
24713;SDS011;12820;51.580;5.010;2022-12-18T01:05:14;66.70;;;24.40;;
24713;SDS011;12820;51.580;5.010;2022-12-18T01:10:17;66.40;;;22.85;;
24713;SDS011;12820;51.580;5.010;2022-12-18T01:15:19;65.78;;;22.88;;
24713;SDS011;12820;51.580;5.010;2022-12-18T01:20:22;61.83;;;22.33;;
24713;SDS011;12820;51.580;5.010;2022-12-18T01:25:24;63.33;;;22.55;;
24713;SDS011;12820;51.580;5.010;2022-12-18T01:30:26;90.65;;;34.67;;
24713;SDS011;12820;51.580;5.010;2022-12-18T01:35:29;64.78;;;23.13;;
24713;SDS011;12820;51.580;5.010;2022-12-18T01:40:31;58.65;;;22.55;;
24713;SDS011;12820;51.580;5.010;2022-12-18T01:45:33;56.92;;;21.88;;
24713;SDS011;12820;51.580;5.010;2022-12-18T01:50:36;56.15;;;21.00;;
24713;SDS011;12820;51.580;5.010;2022-12-18T01:55:49;55.55;;;22.23;;
24713;SDS011;12820;51.580;5.010;2022-12-18T02:00:55;57.50;;;21.50;;
24713;SDS011;12820;51.580;5.010;2022-12-18T02:11:11;57.53;;;20.65;;
24713;SDS011;12820;51.580;5.010;2022-12-18T02:16:24;52.42;;;19.35;;
24713;SDS011;12820;51.580;5.010;2022-12-18T02:21:39;61.60;;;25.75;;
24713;SDS011;12820;51.580;5.010;2022-12-18T02:26:53;55.95;;;21.58;;
24713;SDS011;12820;51.580;5.010;2022-12-18T02:32:01;46.15;;;18.58;;
24713;SDS011;12820;51.580;5.010;2022-12-18T02:37:09;51.05;;;18.67;;
24713;SDS011;12820;51.580;5.010;2022-12-18T02:42:16;48.72;;;19.70;;
24713;SDS011;12820;51.580;5.010;2022-12-18T02:47:20;50.45;;;19.95;;
24713;SDS011;12820;51.580;5.010;2022-12-18T02:57:46;43.72;;;17.63;;
24713;SDS011;12820;51.580;5.010;2022-12-18T03:13:24;42.95;;;16.75;;
24713;SDS011;12820;51.580;5.010;2022-12-18T03:18:38;43.65;;;17.80;;
24713;SDS011;12820;51.580;5.010;2022-12-18T03:23:44;43.75;;;16.55;;
24713;SDS011;12820;51.580;5.010;2022-12-18T03:28:51;44.97;;;18.05;;
24713;SDS011;12820;51.580;5.010;2022-12-18T03:34:04;36.75;;;15.85;;
24713;SDS011;12820;51.580;5.010;2022-12-18T03:39:17;37.80;;;15.67;;
24713;SDS011;12820;51.580;5.010;2022-12-18T03:44:28;43.72;;;16.52;;
24713;SDS011;12820;51.580;5.010;2022-12-18T03:49:46;40.53;;;15.55;;
24713;SDS011;12820;51.580;5.010;2022-12-18T03:54:54;38.63;;;16.33;;
24713;SDS011;12820;51.580;5.010;2022-12-18T04:00:11;40.13;;;16.50;;
24713;SDS011;12820;51.580;5.010;2022-12-18T04:05:24;37.63;;;15.00;;
24713;SDS011;12820;51.580;5.010;2022-12-18T04:10:28;43.28;;;15.63;;
24713;SDS011;12820;51.580;5.010;2022-12-18T04:15:35;38.15;;;15.32;;
24713;SDS011;12820;51.580;5.010;2022-12-18T04:20:42;39.97;;;15.45;;
24713;SDS011;12820;51.580;5.010;2022-12-18T04:25:46;34.38;;;14.18;;
24713;SDS011;12820;51.580;5.010;2022-12-18T04:30:55;39.17;;;15.45;;
24713;SDS011;12820;51.580;5.010;2022-12-18T04:35:57;42.83;;;15.65;;
24713;SDS011;12820;51.580;5.010;2022-12-18T04:41:00;40.55;;;16.08;;
24713;SDS011;12820;51.580;5.010;2022-12-18T04:46:07;44.20;;;16.02;;
24713;SDS011;12820;51.580;5.010;2022-12-18T04:51:10;38.42;;;15.25;;
24713;SDS011;12820;51.580;5.010;2022-12-18T04:56:14;34.35;;;15.23;;
24713;SDS011;12820;51.580;5.010;2022-12-18T05:01:17;41.03;;;15.25;;
24713;SDS011;12820;51.580;5.010;2022-12-18T05:06:20;38.17;;;14.05;;
24713;SDS011;12820;51.580;5.010;2022-12-18T05:11:22;36.03;;;14.65;;
24713;SDS011;12820;51.580;5.010;2022-12-18T05:16:24;33.95;;;14.18;;
24713;SDS011;12820;51.580;5.010;2022-12-18T05:21:26;36.83;;;14.80;;
24713;SDS011;12820;51.580;5.010;2022-12-18T05:26:28;36.58;;;14.82;;
24713;SDS011;12820;51.580;5.010;2022-12-18T05:31:31;34.50;;;14.90;;
24713;SDS011;12820;51.580;5.010;2022-12-18T05:36:40;35.17;;;13.13;;
24713;SDS011;12820;51.580;5.010;2022-12-18T05:41:42;35.42;;;13.60;;
24713;SDS011;12820;51.580;5.010;2022-12-18T05:46:44;30.65;;;13.68;;
24713;SDS011;12820;51.580;5.010;2022-12-18T05:51:47;33.53;;;14.13;;
24713;SDS011;12820;51.580;5.010;2022-12-18T05:56:49;32.30;;;13.35;;
24713;SDS011;12820;51.580;5.010;2022-12-18T06:01:51;32.00;;;13.52;;
24713;SDS011;12820;51.580;5.010;2022-12-18T06:06:53;33.20;;;14.05;;
24713;SDS011;12820;51.580;5.010;2022-12-18T06:11:55;34.08;;;13.80;;
24713;SDS011;12820;51.580;5.010;2022-12-18T06:16:57;31.30;;;14.32;;
24713;SDS011;12820;51.580;5.010;2022-12-18T06:22:00;31.75;;;13.43;;
24713;SDS011;12820;51.580;5.010;2022-12-18T06:27:02;31.48;;;13.73;;
24713;SDS011;12820;51.580;5.010;2022-12-18T06:32:04;32.45;;;13.73;;
24713;SDS011;12820;51.580;5.010;2022-12-18T06:37:06;32.85;;;14.15;;
24713;SDS011;12820;51.580;5.010;2022-12-18T06:42:08;32.50;;;13.48;;
24713;SDS011;12820;51.580;5.010;2022-12-18T06:47:10;30.25;;;12.77;;
24713;SDS011;12820;51.580;5.010;2022-12-18T06:52:12;33.92;;;12.80;;
24713;SDS011;12820;51.580;5.010;2022-12-18T06:57:19;35.55;;;14.25;;
24713;SDS011;12820;51.580;5.010;2022-12-18T07:02:21;29.95;;;13.77;;
24713;SDS011;12820;51.580;5.010;2022-12-18T07:07:23;33.97;;;15.25;;
24713;SDS011;12820;51.580;5.010;2022-12-18T07:12:26;33.58;;;14.27;;
24713;SDS011;12820;51.580;5.010;2022-12-18T07:17:29;38.25;;;14.52;;
24713;SDS011;12820;51.580;5.010;2022-12-18T07:22:31;29.02;;;13.48;;
24713;SDS011;12820;51.580;5.010;2022-12-18T07:27:33;37.53;;;14.68;;
24713;SDS011;12820;51.580;5.010;2022-12-18T07:32:35;31.77;;;13.65;;
24713;SDS011;12820;51.580;5.010;2022-12-18T07:37:37;37.15;;;14.45;;
24713;SDS011;12820;51.580;5.010;2022-12-18T07:42:39;33.47;;;14.85;;
24713;SDS011;12820;51.580;5.010;2022-12-18T07:47:41;35.22;;;13.90;;
24713;SDS011;12820;51.580;5.010;2022-12-18T07:52:43;35.20;;;14.05;;
24713;SDS011;12820;51.580;5.010;2022-12-18T07:57:45;30.35;;;13.40;;
24713;SDS011;12820;51.580;5.010;2022-12-18T08:02:55;35.20;;;13.67;;
24713;SDS011;12820;51.580;5.010;2022-12-18T08:07:57;31.65;;;13.70;;
24713;SDS011;12820;51.580;5.010;2022-12-18T08:12:59;29.95;;;13.50;;
24713;SDS011;12820;51.580;5.010;2022-12-18T08:18:06;38.33;;;15.70;;
24713;SDS011;12820;51.580;5.010;2022-12-18T08:23:14;35.63;;;14.43;;
24713;SDS011;12820;51.580;5.010;2022-12-18T08:28:17;34.95;;;17.23;;
24713;SDS011;12820;51.580;5.010;2022-12-18T08:33:19;34.60;;;15.20;;
24713;SDS011;12820;51.580;5.010;2022-12-18T08:38:21;35.58;;;13.43;;
24713;SDS011;12820;51.580;5.010;2022-12-18T08:43:24;30.83;;;13.40;;
24713;SDS011;12820;51.580;5.010;2022-12-18T08:53:47;33.08;;;13.07;;
24713;SDS011;12820;51.580;5.010;2022-12-18T08:58:53;29.80;;;13.68;;
24713;SDS011;12820;51.580;5.010;2022-12-18T09:03:55;31.33;;;13.07;;
24713;SDS011;12820;51.580;5.010;2022-12-18T09:08:57;33.05;;;13.10;;
24713;SDS011;12820;51.580;5.010;2022-12-18T09:14:01;31.85;;;13.43;;
24713;SDS011;12820;51.580;5.010;2022-12-18T09:19:03;27.02;;;13.52;;
24713;SDS011;12820;51.580;5.010;2022-12-18T09:24:08;32.72;;;14.25;;
24713;SDS011;12820;51.580;5.010;2022-12-18T09:29:15;33.60;;;14.35;;
24713;SDS011;12820;51.580;5.010;2022-12-18T09:34:19;29.02;;;14.20;;
24713;SDS011;12820;51.580;5.010;2022-12-18T09:39:23;30.60;;;14.40;;
24713;SDS011;12820;51.580;5.010;2022-12-18T09:49:47;32.03;;;13.95;;
24713;SDS011;12820;51.580;5.010;2022-12-18T09:55:03;33.15;;;14.88;;
24713;SDS011;12820;51.580;5.010;2022-12-18T10:00:19;37.72;;;17.98;;
24713;SDS011;12820;51.580;5.010;2022-12-18T10:05:29;35.97;;;14.75;;
24713;SDS011;12820;51.580;5.010;2022-12-18T10:10:43;35.10;;;14.18;;
24713;SDS011;12820;51.580;5.010;2022-12-18T10:15:58;26.75;;;12.73;;
24713;SDS011;12820;51.580;5.010;2022-12-18T10:22:07;29.13;;;12.75;;
24713;SDS011;12820;51.580;5.010;2022-12-18T10:27:18;34.13;;;14.35;;
24713;SDS011;12820;51.580;5.010;2022-12-18T10:32:25;30.83;;;14.10;;
24713;SDS011;12820;51.580;5.010;2022-12-18T10:37:29;29.58;;;13.52;;
24713;SDS011;12820;51.580;5.010;2022-12-18T10:42:31;28.00;;;13.43;;
24713;SDS011;12820;51.580;5.010;2022-12-18T10:47:33;31.70;;;13.80;;
24713;SDS011;12820;51.580;5.010;2022-12-18T10:52:36;24.77;;;12.77;;
24713;SDS011;12820;51.580;5.010;2022-12-18T10:57:44;27.42;;;13.27;;
24713;SDS011;12820;51.580;5.010;2022-12-18T11:02:46;32.28;;;14.95;;
24713;SDS011;12820;51.580;5.010;2022-12-18T11:07:49;32.17;;;15.05;;
24713;SDS011;12820;51.580;5.010;2022-12-18T11:12:52;33.88;;;15.02;;
24713;SDS011;12820;51.580;5.010;2022-12-18T11:17:54;29.13;;;14.43;;
24713;SDS011;12820;51.580;5.010;2022-12-18T11:22:58;34.10;;;15.48;;
24713;SDS011;12820;51.580;5.010;2022-12-18T11:28:04;34.22;;;15.13;;
24713;SDS011;12820;51.580;5.010;2022-12-18T11:33:26;31.08;;;14.93;;
24713;SDS011;12820;51.580;5.010;2022-12-18T11:38:35;33.08;;;15.32;;
24713;SDS011;12820;51.580;5.010;2022-12-18T11:49:35;31.80;;;14.60;;
24713;SDS011;12820;51.580;5.010;2022-12-18T11:54:34;28.95;;;14.98;;
24713;SDS011;12820;51.580;5.010;2022-12-18T12:05:12;31.65;;;14.70;;
24713;SDS011;12820;51.580;5.010;2022-12-18T12:10:36;30.73;;;13.52;;
24713;SDS011;12820;51.580;5.010;2022-12-18T12:21:50;33.70;;;15.50;;
24713;SDS011;12820;51.580;5.010;2022-12-18T12:27:21;48.80;;;24.13;;
24713;SDS011;12820;51.580;5.010;2022-12-18T12:38:04;45.20;;;22.75;;
24713;SDS011;12820;51.580;5.010;2022-12-18T12:43:44;44.25;;;23.33;;
24713;SDS011;12820;51.580;5.010;2022-12-18T12:53:59;49.85;;;27.17;;
24713;SDS011;12820;51.580;5.010;2022-12-18T12:59:23;42.97;;;24.83;;
24713;SDS011;12820;51.580;5.010;2022-12-18T13:04:33;52.13;;;23.63;;
24713;SDS011;12820;51.580;5.010;2022-12-18T13:15:29;46.58;;;19.05;;
24713;SDS011;12820;51.580;5.010;2022-12-18T13:36:43;47.13;;;26.38;;
24713;SDS011;12820;51.580;5.010;2022-12-18T13:41:45;35.47;;;18.15;;
24713;SDS011;12820;51.580;5.010;2022-12-18T13:46:50;57.17;;;35.17;;
24713;SDS011;12820;51.580;5.010;2022-12-18T13:51:54;176.45;;;109.97;;
24713;SDS011;12820;51.580;5.010;2022-12-18T13:56:58;87.00;;;59.22;;
24713;SDS011;12820;51.580;5.010;2022-12-18T14:02:04;85.45;;;57.90;;
24713;SDS011;12820;51.580;5.010;2022-12-18T14:07:16;71.32;;;41.05;;
24713;SDS011;12820;51.580;5.010;2022-12-18T14:12:22;45.25;;;21.38;;
24713;SDS011;12820;51.580;5.010;2022-12-18T14:17:46;131.57;;;97.72;;
24713;SDS011;12820;51.580;5.010;2022-12-18T14:22:49;134.20;;;92.63;;
24713;SDS011;12820;51.580;5.010;2022-12-18T14:27:52;48.33;;;26.50;;
24713;SDS011;12820;51.580;5.010;2022-12-18T14:43:17;42.35;;;24.80;;
24713;SDS011;12820;51.580;5.010;2022-12-18T14:48:39;40.80;;;20.30;;
24713;SDS011;12820;51.580;5.010;2022-12-18T14:53:46;38.28;;;18.38;;
24713;SDS011;12820;51.580;5.010;2022-12-18T14:59:06;35.80;;;18.45;;
24713;SDS011;12820;51.580;5.010;2022-12-18T15:04:26;67.53;;;44.25;;
24713;SDS011;12820;51.580;5.010;2022-12-18T15:09:43;57.88;;;35.20;;
24713;SDS011;12820;51.580;5.010;2022-12-18T15:15:02;67.72;;;48.63;;
24713;SDS011;12820;51.580;5.010;2022-12-18T15:20:09;40.63;;;21.30;;
24713;SDS011;12820;51.580;5.010;2022-12-18T15:30:38;81.13;;;55.80;;
24713;SDS011;12820;51.580;5.010;2022-12-18T15:35:40;58.35;;;34.97;;
24713;SDS011;12820;51.580;5.010;2022-12-18T15:40:48;35.47;;;18.23;;
24713;SDS011;12820;51.580;5.010;2022-12-18T15:45:50;38.50;;;19.80;;
24713;SDS011;12820;51.580;5.010;2022-12-18T15:50:52;40.40;;;20.42;;
24713;SDS011;12820;51.580;5.010;2022-12-18T15:55:58;42.85;;;23.80;;
24713;SDS011;12820;51.580;5.010;2022-12-18T16:01:19;46.20;;;26.67;;
24713;SDS011;12820;51.580;5.010;2022-12-18T16:06:24;56.90;;;34.63;;
24713;SDS011;12820;51.580;5.010;2022-12-18T16:11:27;37.13;;;17.80;;
24713;SDS011;12820;51.580;5.010;2022-12-18T16:16:40;45.33;;;22.60;;
24713;SDS011;12820;51.580;5.010;2022-12-18T16:21:42;40.88;;;20.80;;
24713;SDS011;12820;51.580;5.010;2022-12-18T16:26:44;47.38;;;29.73;;
24713;SDS011;12820;51.580;5.010;2022-12-18T16:31:46;45.90;;;25.65;;
24713;SDS011;12820;51.580;5.010;2022-12-18T16:36:49;42.67;;;19.77;;
24713;SDS011;12820;51.580;5.010;2022-12-18T16:41:51;48.80;;;23.02;;
24713;SDS011;12820;51.580;5.010;2022-12-18T16:46:55;39.08;;;20.15;;
24713;SDS011;12820;51.580;5.010;2022-12-18T16:52:03;38.35;;;19.88;;
24713;SDS011;12820;51.580;5.010;2022-12-18T16:57:08;47.28;;;23.13;;
24713;SDS011;12820;51.580;5.010;2022-12-18T17:02:18;43.30;;;20.05;;
24713;SDS011;12820;51.580;5.010;2022-12-18T17:07:25;46.80;;;22.13;;
24713;SDS011;12820;51.580;5.010;2022-12-18T17:12:29;61.78;;;40.72;;
24713;SDS011;12820;51.580;5.010;2022-12-18T17:17:31;42.28;;;22.58;;
24713;SDS011;12820;51.580;5.010;2022-12-18T17:22:34;67.32;;;32.85;;
24713;SDS011;12820;51.580;5.010;2022-12-18T17:27:36;51.15;;;27.25;;
24713;SDS011;12820;51.580;5.010;2022-12-18T17:32:38;42.15;;;23.13;;
24713;SDS011;12820;51.580;5.010;2022-12-18T17:37:40;65.97;;;43.13;;
24713;SDS011;12820;51.580;5.010;2022-12-18T17:42:42;48.88;;;27.60;;
24713;SDS011;12820;51.580;5.010;2022-12-18T17:47:45;39.55;;;19.92;;
24713;SDS011;12820;51.580;5.010;2022-12-18T17:52:47;50.83;;;27.80;;
24713;SDS011;12820;51.580;5.010;2022-12-18T17:57:49;56.42;;;36.13;;
24713;SDS011;12820;51.580;5.010;2022-12-18T18:02:51;37.72;;;19.85;;
24713;SDS011;12820;51.580;5.010;2022-12-18T18:07:54;46.47;;;23.98;;
24713;SDS011;12820;51.580;5.010;2022-12-18T18:12:56;41.10;;;19.42;;
24713;SDS011;12820;51.580;5.010;2022-12-18T18:18:16;37.15;;;18.73;;
24713;SDS011;12820;51.580;5.010;2022-12-18T18:23:20;35.90;;;17.63;;
24713;SDS011;12820;51.580;5.010;2022-12-18T18:28:25;37.22;;;17.02;;
24713;SDS011;12820;51.580;5.010;2022-12-18T18:33:27;36.92;;;17.60;;
24713;SDS011;12820;51.580;5.010;2022-12-18T18:38:31;39.38;;;17.45;;
24713;SDS011;12820;51.580;5.010;2022-12-18T18:43:33;61.67;;;38.08;;
24713;SDS011;12820;51.580;5.010;2022-12-18T18:48:35;45.60;;;23.70;;
24713;SDS011;12820;51.580;5.010;2022-12-18T18:53:39;49.70;;;26.13;;
24713;SDS011;12820;51.580;5.010;2022-12-18T18:58:43;45.20;;;22.58;;
24713;SDS011;12820;51.580;5.010;2022-12-18T19:03:46;47.13;;;21.35;;
24713;SDS011;12820;51.580;5.010;2022-12-18T19:08:49;46.08;;;21.13;;
24713;SDS011;12820;51.580;5.010;2022-12-18T19:13:52;46.05;;;21.70;;
24713;SDS011;12820;51.580;5.010;2022-12-18T19:18:55;43.55;;;21.92;;
24713;SDS011;12820;51.580;5.010;2022-12-18T19:24:03;61.28;;;35.67;;
24713;SDS011;12820;51.580;5.010;2022-12-18T19:29:07;47.35;;;21.98;;
24713;SDS011;12820;51.580;5.010;2022-12-18T19:34:10;49.92;;;24.00;;
24713;SDS011;12820;51.580;5.010;2022-12-18T19:39:14;60.38;;;31.42;;
24713;SDS011;12820;51.580;5.010;2022-12-18T19:44:17;79.93;;;45.88;;
24713;SDS011;12820;51.580;5.010;2022-12-18T19:49:20;56.20;;;28.05;;
24713;SDS011;12820;51.580;5.010;2022-12-18T19:54:23;48.78;;;21.88;;
24713;SDS011;12820;51.580;5.010;2022-12-18T19:59:27;47.78;;;27.83;;
24713;SDS011;12820;51.580;5.010;2022-12-18T20:04:29;49.58;;;22.77;;
24713;SDS011;12820;51.580;5.010;2022-12-18T20:09:32;50.75;;;25.85;;
24713;SDS011;12820;51.580;5.010;2022-12-18T20:14:35;69.93;;;32.72;;
24713;SDS011;12820;51.580;5.010;2022-12-18T20:19:37;52.95;;;25.50;;
24713;SDS011;12820;51.580;5.010;2022-12-18T20:24:40;59.17;;;28.77;;
24713;SDS011;12820;51.580;5.010;2022-12-18T20:29:42;66.22;;;37.33;;
24713;SDS011;12820;51.580;5.010;2022-12-18T20:34:45;51.03;;;23.13;;
24713;SDS011;12820;51.580;5.010;2022-12-18T20:39:48;56.22;;;27.17;;
24713;SDS011;12820;51.580;5.010;2022-12-18T20:44:52;58.20;;;26.80;;
24713;SDS011;12820;51.580;5.010;2022-12-18T20:49:54;60.67;;;26.48;;
24713;SDS011;12820;51.580;5.010;2022-12-18T20:54:57;68.15;;;35.85;;
24713;SDS011;12820;51.580;5.010;2022-12-18T21:00:01;69.47;;;30.80;;
24713;SDS011;12820;51.580;5.010;2022-12-18T21:05:03;64.13;;;29.77;;
24713;SDS011;12820;51.580;5.010;2022-12-18T21:10:06;82.00;;;36.78;;
24713;SDS011;12820;51.580;5.010;2022-12-18T21:15:08;60.03;;;26.00;;
24713;SDS011;12820;51.580;5.010;2022-12-18T21:20:11;53.13;;;25.05;;
24713;SDS011;12820;51.580;5.010;2022-12-18T21:25:20;50.30;;;23.27;;
24713;SDS011;12820;51.580;5.010;2022-12-18T21:30:22;61.22;;;25.30;;
24713;SDS011;12820;51.580;5.010;2022-12-18T21:35:24;55.45;;;24.00;;
24713;SDS011;12820;51.580;5.010;2022-12-18T21:40:28;58.35;;;23.58;;
24713;SDS011;12820;51.580;5.010;2022-12-18T21:45:31;60.22;;;24.50;;
24713;SDS011;12820;51.580;5.010;2022-12-18T21:50:33;59.00;;;25.20;;
24713;SDS011;12820;51.580;5.010;2022-12-18T21:55:35;62.08;;;25.13;;
24713;SDS011;12820;51.580;5.010;2022-12-18T22:00:37;53.72;;;22.02;;
24713;SDS011;12820;51.580;5.010;2022-12-18T22:05:39;53.80;;;23.00;;
24713;SDS011;12820;51.580;5.010;2022-12-18T22:11:08;58.72;;;25.15;;
24713;SDS011;12820;51.580;5.010;2022-12-18T22:16:12;52.60;;;23.05;;
24713;SDS011;12820;51.580;5.010;2022-12-18T22:21:20;56.53;;;23.73;;
24713;SDS011;12820;51.580;5.010;2022-12-18T22:26:31;52.97;;;21.13;;
24713;SDS011;12820;51.580;5.010;2022-12-18T22:31:41;55.15;;;22.92;;
24713;SDS011;12820;51.580;5.010;2022-12-18T22:36:44;58.47;;;24.65;;
24713;SDS011;12820;51.580;5.010;2022-12-18T22:41:48;55.13;;;22.85;;
24713;SDS011;12820;51.580;5.010;2022-12-18T22:46:51;57.30;;;23.70;;
24713;SDS011;12820;51.580;5.010;2022-12-18T22:52:08;52.38;;;23.05;;
24713;SDS011;12820;51.580;5.010;2022-12-18T22:57:10;56.33;;;23.45;;
24713;SDS011;12820;51.580;5.010;2022-12-18T23:02:13;53.55;;;21.92;;
24713;SDS011;12820;51.580;5.010;2022-12-18T23:07:16;57.92;;;23.10;;
24713;SDS011;12820;51.580;5.010;2022-12-18T23:12:18;58.13;;;23.52;;
24713;SDS011;12820;51.580;5.010;2022-12-18T23:17:20;59.25;;;22.30;;
24713;SDS011;12820;51.580;5.010;2022-12-18T23:22:22;58.03;;;22.52;;
24713;SDS011;12820;51.580;5.010;2022-12-18T23:27:24;66.00;;;25.10;;
24713;SDS011;12820;51.580;5.010;2022-12-18T23:32:26;63.60;;;25.92;;
24713;SDS011;12820;51.580;5.010;2022-12-18T23:37:28;62.67;;;24.13;;
24713;SDS011;12820;51.580;5.010;2022-12-18T23:42:51;59.45;;;23.00;;
24713;SDS011;12820;51.580;5.010;2022-12-18T23:47:53;67.28;;;25.90;;
24713;SDS011;12820;51.580;5.010;2022-12-18T23:52:55;65.40;;;23.42;;
24713;SDS011;12820;51.580;5.010;2022-12-18T23:58:04;70.97;;;24.92;;
